Time,TemperatureF,DewpointF,PressureIn,WindDirection,WindDirectionDegrees,WindSpeedMPH,WindSpeedGustMPH,Humidity,HourlyPrecipIn,Conditions,Clouds,dailyrainin,SoftwareType,DateUTC
2013-10-22 00:05:00,45.2,18.5,30.56,NW,321,2.0,3.0,34,0.00,,,0.00,Wunderground v.1.15,2013-10-22 07:05:00,
2013-10-22 00:11:00,45.0,18.3,30.57,NNW,340,2.0,3.0,34,0.00,,,0.00,Wunderground v.1.15,2013-10-22 07:11:00,
2013-10-22 00:25:00,44.3,18.3,30.57,WNW,298,2.0,2.0,35,0.00,,,0.00,Wunderground v.1.15,2013-10-22 07:25:00,
2013-10-22 00:35:00,44.0,18.1,30.57,NW,326,2.0,2.0,35,0.00,,,0.00,Wunderground v.1.15,2013-10-22 07:35:00,
2013-10-22 00:45:00,44.3,18.3,30.57,WNW,291,2.0,2.0,35,0.00,,,0.00,Wunderground v.1.15,2013-10-22 07:45:00,
2013-10-22 00:55:00,43.7,17.8,30.57,North,5,2.0,4.0,35,0.00,,,0.00,Wunderground v.1.15,2013-10-22 07:55:00,
2013-10-22 01:01:00,43.6,18.4,30.57,WNW,297,2.0,3.0,36,0.00,,,0.00,Wunderground v.1.15,2013-10-22 08:01:00,
2013-10-22 01:15:00,42.8,18.3,30.57,NNW,328,2.0,3.0,37,0.00,,,0.00,Wunderground v.1.15,2013-10-22 08:15:00,
2013-10-22 01:21:00,41.8,18.0,30.58,NNW,340,3.0,3.0,38,0.00,,,0.00,Wunderground v.1.15,2013-10-22 08:21:00,
2013-10-22 01:35:00,42.1,18.3,30.58,NW,305,3.0,3.0,38,0.00,,,0.00,Wunderground v.1.15,2013-10-22 08:35:00,
2013-10-22 01:45:00,42.6,18.7,30.58,NNE,30,3.0,3.0,38,0.00,,,0.00,Wunderground v.1.15,2013-10-22 08:45:00,
2013-10-22 01:51:00,43.3,18.7,30.58,NNW,340,3.0,4.0,37,0.00,,,0.00,Wunderground v.1.15,2013-10-22 08:51:00,
2013-10-22 02:05:00,43.5,18.9,30.58,North,360,3.0,3.0,37,0.00,,,0.00,Wunderground v.1.15,2013-10-22 09:05:00,
2013-10-22 02:15:00,42.4,18.6,30.58,NE,36,3.0,3.0,38,0.00,,,0.00,Wunderground v.1.15,2013-10-22 09:15:00,
2013-10-22 02:21:00,42.0,18.8,30.58,NNE,30,3.0,3.0,39,0.00,,,0.00,Wunderground v.1.15,2013-10-22 09:21:00,
2013-10-22 02:35:00,41.1,18.6,30.58,NNE,18,3.0,3.0,40,0.00,,,0.00,Wunderground v.1.15,2013-10-22 09:35:00,
2013-10-22 02:41:00,40.7,18.8,30.58,North,352,3.0,3.0,41,0.00,,,0.00,Wunderground v.1.15,2013-10-22 09:41:00,
2013-10-22 02:55:00,41.2,18.7,30.58,NNE,26,4.0,4.0,40,0.00,,,0.00,Wunderground v.1.15,2013-10-22 09:55:00,
2013-10-22 03:05:00,41.3,18.8,30.58,North,356,4.0,5.0,40,0.00,,,0.00,Wunderground v.1.15,2013-10-22 10:05:00,
2013-10-22 03:11:00,41.1,18.6,30.58,North,1,4.0,5.0,40,0.00,,,0.00,Wunderground v.1.15,2013-10-22 10:11:00,
2013-10-22 03:25:00,40.1,18.8,30.58,NW,314,3.0,3.0,42,0.00,,,0.00,Wunderground v.1.15,2013-10-22 10:25:00,
2013-10-22 03:31:00,39.7,19.0,30.58,North,350,3.0,3.0,43,0.00,,,0.00,Wunderground v.1.15,2013-10-22 10:31:00,
2013-10-22 03:45:00,39.4,19.3,30.58,NW,326,4.0,4.0,44,0.00,,,0.00,Wunderground v.1.15,2013-10-22 10:45:00,
2013-10-22 03:55:00,39.5,19.4,30.58,NE,46,4.0,5.0,44,0.00,,,0.00,Wunderground v.1.15,2013-10-22 10:55:00,
2013-10-22 04:05:00,39.2,19.1,30.58,North,352,4.0,4.0,44,0.00,,,0.00,Wunderground v.1.15,2013-10-22 11:05:00,
2013-10-22 04:15:00,38.4,18.9,30.58,NW,318,3.0,3.0,45,0.00,,,0.00,Wunderground v.1.15,2013-10-22 11:15:00,
2013-10-22 04:25:00,38.1,19.1,30.59,NW,315,3.0,4.0,46,0.00,,,0.00,Wunderground v.1.15,2013-10-22 11:25:00,
2013-10-22 04:35:00,37.8,19.3,30.58,NW,315,3.0,3.0,47,0.00,,,0.00,Wunderground v.1.15,2013-10-22 11:35:00,
2013-10-22 04:41:00,37.9,19.4,30.59,NNE,23,3.0,3.0,47,0.00,,,0.00,Wunderground v.1.15,2013-10-22 11:41:00,
2013-10-22 04:55:00,38.5,20.0,30.59,NNE,26,4.0,6.0,47,0.00,,,0.00,Wunderground v.1.15,2013-10-22 11:55:00,
2013-10-22 05:01:00,38.8,19.8,30.59,NE,49,5.0,7.0,46,0.00,,,0.00,Wunderground v.1.15,2013-10-22 12:01:00,
2013-10-22 05:15:00,38.5,20.0,30.59,North,354,5.0,5.0,47,0.00,,,0.00,Wunderground v.1.15,2013-10-22 12:15:00,
2013-10-22 05:25:00,37.9,19.4,30.59,NNW,328,5.0,5.0,47,0.00,,,0.00,Wunderground v.1.15,2013-10-22 12:25:00,
2013-10-22 05:31:00,37.4,19.5,30.60,NNW,347,4.0,5.0,48,0.00,,,0.00,Wunderground v.1.15,2013-10-22 12:31:00,
2013-10-22 05:45:00,37.1,19.7,30.60,North,9,4.0,4.0,49,0.00,,,0.00,Wunderground v.1.15,2013-10-22 12:45:00,
2013-10-22 05:51:00,37.0,20.1,30.60,North,359,3.0,4.0,50,0.00,,,0.00,Wunderground v.1.15,2013-10-22 12:51:00,
2013-10-22 06:05:00,36.5,20.1,30.60,WNW,298,3.0,3.0,51,0.00,,,0.00,Wunderground v.1.15,2013-10-22 13:05:00,
2013-10-22 06:15:00,36.1,19.7,30.60,North,8,3.0,6.0,51,0.00,,,0.00,Wunderground v.1.15,2013-10-22 13:15:00,
2013-10-22 06:21:00,36.1,20.2,30.60,NNW,335,3.0,6.0,52,0.00,,,0.00,Wunderground v.1.15,2013-10-22 13:21:00,
2013-10-22 06:35:00,35.9,20.0,30.60,North,360,3.0,4.0,52,0.00,,,0.00,Wunderground v.1.15,2013-10-22 13:35:00,
2013-10-22 06:41:00,35.8,20.3,30.61,North,349,3.0,4.0,53,0.00,,,0.00,Wunderground v.1.15,2013-10-22 13:41:00,
2013-10-22 06:55:00,36.0,20.5,30.61,North,354,4.0,5.0,53,0.00,,,0.00,Wunderground v.1.15,2013-10-22 13:55:00,
2013-10-22 07:01:00,36.4,20.4,30.61,NNE,25,4.0,5.0,52,0.00,,,0.00,Wunderground v.1.15,2013-10-22 14:01:00,
2013-10-22 07:15:00,36.9,20.4,30.61,North,352,3.0,4.0,51,0.00,,,0.00,Wunderground v.1.15,2013-10-22 14:15:00,
2013-10-22 07:25:00,37.3,20.8,30.61,NNW,328,3.0,3.0,51,0.00,,,0.00,Wunderground v.1.15,2013-10-22 14:25:00,
2013-10-22 07:31:00,38.0,21.0,30.61,NNE,16,3.0,4.0,50,0.00,,,0.00,Wunderground v.1.15,2013-10-22 14:31:00,
2013-10-22 07:45:00,39.8,21.7,30.62,North,357,4.0,5.0,48,0.00,,,0.00,Wunderground v.1.15,2013-10-22 14:45:00,
2013-10-22 07:55:00,41.2,22.0,30.62,NNE,23,4.0,4.0,46,0.00,,,0.00,Wunderground v.1.15,2013-10-22 14:55:00,
2013-10-22 08:05:00,42.6,22.2,30.62,NNW,344,4.0,4.0,44,0.00,,,0.00,Wunderground v.1.15,2013-10-22 15:05:00,
2013-10-22 08:15:00,44.0,22.4,30.62,NW,321,3.0,3.0,42,0.00,,,0.00,Wunderground v.1.15,2013-10-22 15:15:00,
2013-10-22 08:21:00,44.8,22.5,30.62,NW,321,3.0,3.0,41,0.00,,,0.00,Wunderground v.1.15,2013-10-22 15:21:00,
2013-10-22 08:35:00,47.4,23.0,30.63,NNW,340,3.0,4.0,38,0.00,,,0.00,Wunderground v.1.15,2013-10-22 15:35:00,
2013-10-22 08:45:00,48.9,23.7,30.62,North,4,3.0,4.0,37,0.00,,,0.00,Wunderground v.1.15,2013-10-22 15:45:00,
2013-10-22 08:51:00,49.9,24.0,30.62,NW,316,3.0,4.0,36,0.00,,,0.00,Wunderground v.1.15,2013-10-22 15:51:00,
2013-10-22 09:05:00,52.4,24.1,30.62,NNE,29,3.0,3.0,33,0.00,,,0.00,Wunderground v.1.15,2013-10-22 16:05:00,
2013-10-22 09:15:00,53.9,23.9,30.62,NNE,15,3.0,5.0,31,0.00,,,0.00,Wunderground v.1.15,2013-10-22 16:15:00,
2013-10-22 09:25:00,55.7,24.7,30.61,NNW,340,3.0,3.0,30,0.00,,,0.00,Wunderground v.1.15,2013-10-22 16:25:00,
2013-10-22 09:35:00,57.5,25.5,30.61,NW,323,2.0,4.0,29,0.00,,,0.00,Wunderground v.1.15,2013-10-22 16:35:00,
2013-10-22 09:41:00,58.4,24.5,30.61,WNW,302,3.0,4.0,27,0.00,,,0.00,Wunderground v.1.15,2013-10-22 16:41:00,
2013-10-22 09:55:00,61.0,25.8,30.60,North,7,2.0,4.0,26,0.00,,,0.00,Wunderground v.1.15,2013-10-22 16:55:00,
2013-10-22 10:05:00,62.3,25.0,30.60,WNW,293,2.0,2.0,24,0.00,,,0.00,Wunderground v.1.15,2013-10-22 17:05:00,
2013-10-22 10:11:00,63.2,24.7,30.60,NNW,332,2.0,3.0,23,0.00,,,0.00,Wunderground v.1.15,2013-10-22 17:11:00,
2013-10-22 10:25:00,64.9,24.0,30.59,NW,322,1.0,1.0,21,0.00,,,0.00,Wunderground v.1.15,2013-10-22 17:25:00,
2013-10-22 10:31:00,65.6,24.6,30.59,SSW,194,1.0,3.0,21,0.00,,,0.00,Wunderground v.1.15,2013-10-22 17:31:00,
2013-10-22 10:45:00,68.0,24.2,30.59,SSW,195,1.0,6.0,19,0.00,,,0.00,Wunderground v.1.15,2013-10-22 17:45:00,
2013-10-22 10:51:00,68.4,21.8,30.59,ESE,115,2.0,6.0,17,0.00,,,0.00,Wunderground v.1.15,2013-10-22 17:51:00,
2013-10-22 11:05:00,69.0,20.9,30.58,NW,311,2.0,2.0,16,0.00,,,0.00,Wunderground v.1.15,2013-10-22 18:05:00,
2013-10-22 11:15:00,69.9,23.1,30.58,WSW,256,2.0,5.0,17,0.00,,,0.00,Wunderground v.1.15,2013-10-22 18:15:00,
2013-10-22 11:21:00,70.4,22.0,30.58,East,97,3.0,5.0,16,0.00,,,0.00,Wunderground v.1.15,2013-10-22 18:21:00,
2013-10-22 11:35:00,70.7,22.3,30.57,SW,217,3.0,4.0,16,0.00,,,0.00,Wunderground v.1.15,2013-10-22 18:35:00,
2013-10-22 11:41:00,71.2,22.7,30.57,SSW,208,3.0,4.0,16,0.00,,,0.00,Wunderground v.1.15,2013-10-22 18:41:00,
2013-10-22 11:55:00,71.7,21.5,30.56,SSE,161,2.0,2.0,15,0.00,,,0.00,Wunderground v.1.15,2013-10-22 18:55:00,
2013-10-22 12:05:00,70.8,20.8,30.55,SSW,197,4.0,4.0,15,0.00,,,0.00,Wunderground v.1.15,2013-10-22 19:05:00,
2013-10-22 12:11:00,71.2,19.5,30.55,ESE,114,4.0,4.0,14,0.00,,,0.00,Wunderground v.1.15,2013-10-22 19:11:00,
2013-10-22 12:25:00,71.9,21.7,30.54,SW,214,2.0,5.0,15,0.00,,,0.00,Wunderground v.1.15,2013-10-22 19:25:00,
2013-10-22 12:31:00,72.2,20.3,30.54,SSE,149,4.0,5.0,14,0.00,,,0.00,Wunderground v.1.15,2013-10-22 19:31:00,
2013-10-22 12:41:00,72.4,20.5,30.53,West,274,3.0,6.0,14,0.00,,,0.00,Wunderground v.1.15,2013-10-22 19:41:00,
2013-10-22 12:55:00,72.0,21.8,30.52,ESE,105,2.0,3.0,15,0.00,,,0.00,Wunderground v.1.15,2013-10-22 19:55:00,
2013-10-22 13:01:00,73.0,20.9,30.52,SSE,150,3.0,3.0,14,0.00,,,0.00,Wunderground v.1.15,2013-10-22 20:01:00,
2013-10-22 13:15:00,72.7,19.0,30.52,NE,55,2.0,2.0,13,0.00,,,0.00,Wunderground v.1.15,2013-10-22 20:15:00,
2013-10-22 13:21:00,72.8,20.8,30.52,SSW,197,2.0,7.0,14,0.00,,,0.00,Wunderground v.1.15,2013-10-22 20:21:00,
2013-10-22 13:35:00,73.7,19.8,30.51,NNE,29,1.0,2.0,13,0.00,,,0.00,Wunderground v.1.15,2013-10-22 20:35:00,
2013-10-22 13:45:00,74.1,20.1,30.51,ENE,75,1.0,4.0,13,0.00,,,0.00,Wunderground v.1.15,2013-10-22 20:45:00,
2013-10-22 13:51:00,74.5,20.4,30.50,South,170,2.0,5.0,13,0.00,,,0.00,Wunderground v.1.15,2013-10-22 20:51:00,
2013-10-22 14:05:00,73.9,19.9,30.50,SW,222,2.0,2.0,13,0.00,,,0.00,Wunderground v.1.15,2013-10-22 21:05:00,
2013-10-22 14:15:00,74.4,20.3,30.50,SSE,148,3.0,3.0,13,0.00,,,0.00,Wunderground v.1.15,2013-10-22 21:15:00,
2013-10-22 14:21:00,74.9,18.8,30.50,South,179,3.0,4.0,12,0.00,,,0.00,Wunderground v.1.15,2013-10-22 21:21:00,
2013-10-22 14:35:00,74.7,18.7,30.50,South,179,4.0,4.0,12,0.00,,,0.00,Wunderground v.1.15,2013-10-22 21:35:00,
2013-10-22 14:41:00,74.8,18.7,30.50,South,190,4.0,6.0,12,0.00,,,0.00,Wunderground v.1.15,2013-10-22 21:41:00,
2013-10-22 14:55:00,74.4,16.4,30.50,WSW,252,3.0,5.0,11,0.00,,,0.00,Wunderground v.1.15,2013-10-22 21:55:00,
2013-10-22 15:05:00,74.6,16.6,30.50,SW,217,2.0,2.0,11,0.00,,,0.00,Wunderground v.1.15,2013-10-22 22:05:00,
2013-10-22 15:15:00,74.3,16.3,30.50,WNW,287,2.0,2.0,11,0.00,,,0.00,Wunderground v.1.15,2013-10-22 22:15:00,
2013-10-22 15:25:00,74.6,16.6,30.49,South,184,1.0,2.0,11,0.00,,,0.00,Wunderground v.1.15,2013-10-22 22:25:00,
2013-10-22 15:35:00,74.7,16.6,30.49,South,185,4.0,4.0,11,0.00,,,0.00,Wunderground v.1.15,2013-10-22 22:35:00,
2013-10-22 15:41:00,75.2,14.8,30.49,WSW,248,3.0,4.0,10,0.00,,,0.00,Wunderground v.1.15,2013-10-22 22:41:00,
2013-10-22 15:55:00,74.7,14.5,30.49,South,180,1.0,1.0,10,0.00,,,0.00,Wunderground v.1.15,2013-10-22 22:55:00,
2013-10-22 16:01:00,75.3,14.9,30.49,SSW,207,2.0,2.0,10,0.00,,,0.00,Wunderground v.1.15,2013-10-22 23:01:00,
2013-10-22 16:15:00,74.4,14.2,30.49,ESE,118,3.0,3.0,10,0.00,,,0.00,Wunderground v.1.15,2013-10-22 23:15:00,
2013-10-22 16:25:00,74.4,11.8,30.48,West,273,2.0,2.0,9,0.00,,,0.00,Wunderground v.1.15,2013-10-22 23:25:00,
2013-10-22 16:35:00,73.9,11.4,30.48,SSW,198,2.0,2.0,9,0.00,,,0.00,Wunderground v.1.15,2013-10-22 23:35:00,
2013-10-22 16:45:00,73.7,5.7,30.48,SSW,210,2.0,2.0,7,0.00,,,0.00,Wunderground v.1.15,2013-10-22 23:45:00,
2013-10-22 16:51:00,73.5,8.5,30.48,SW,215,2.0,4.0,8,0.00,,,0.00,Wunderground v.1.15,2013-10-22 23:51:00,
2013-10-22 17:05:00,72.7,10.5,30.48,SW,224,3.0,3.0,9,0.00,,,0.00,Wunderground v.1.15,2013-10-23 00:05:00,
2013-10-22 17:11:00,72.5,10.4,30.48,WSW,238,2.0,3.0,9,0.00,,,0.00,Wunderground v.1.15,2013-10-23 00:11:00,
2013-10-22 17:25:00,71.1,13.9,30.48,SW,228,2.0,2.0,11,0.00,,,0.00,Wunderground v.1.15,2013-10-23 00:25:00,
2013-10-22 17:35:00,69.6,14.7,30.48,SSW,211,1.0,1.0,12,0.00,,,0.00,Wunderground v.1.15,2013-10-23 00:35:00,
2013-10-22 17:41:00,68.5,13.8,30.48,SW,235,0.0,1.0,12,0.00,,,0.00,Wunderground v.1.15,2013-10-23 00:41:00,
2013-10-22 17:55:00,64.7,14.3,30.48,SW,236,0.0,0.0,14,0.00,,,0.00,Wunderground v.1.15,2013-10-23 00:55:00,
2013-10-22 18:01:00,63.4,14.9,30.48,SW,236,0.0,0.0,15,0.00,,,0.00,Wunderground v.1.15,2013-10-23 01:01:00,
2013-10-22 18:15:00,62.6,14.2,30.48,SE,142,0.0,0.0,15,0.00,,,0.00,Wunderground v.1.15,2013-10-23 01:15:00,
2013-10-22 18:25:00,62.2,15.4,30.48,East,91,0.0,3.0,16,0.00,,,0.00,Wunderground v.1.15,2013-10-23 01:25:00,
2013-10-22 18:31:00,61.6,17.6,30.49,ENE,64,2.0,3.0,18,0.00,,,0.00,Wunderground v.1.15,2013-10-23 01:31:00,
2013-10-22 18:45:00,61.3,21.0,30.49,East,79,3.0,6.0,21,0.00,,,0.00,Wunderground v.1.15,2013-10-23 01:45:00,
2013-10-22 18:51:00,61.3,21.0,30.49,ENE,77,3.0,6.0,21,0.00,,,0.00,Wunderground v.1.15,2013-10-23 01:51:00,
2013-10-22 19:05:00,60.8,21.7,30.48,East,82,4.0,4.0,22,0.00,,,0.00,Wunderground v.1.15,2013-10-23 02:05:00,
2013-10-22 19:11:00,60.7,21.6,30.48,East,95,4.0,4.0,22,0.00,,,0.00,Wunderground v.1.15,2013-10-23 02:11:00,
2013-10-22 19:25:00,60.4,21.3,30.48,ESE,106,3.0,4.0,22,0.00,,,0.00,Wunderground v.1.15,2013-10-23 02:25:00,
2013-10-22 19:31:00,60.3,21.2,30.48,East,90,3.0,4.0,22,0.00,,,0.00,Wunderground v.1.15,2013-10-23 02:31:00,
2013-10-22 19:45:00,58.4,21.7,30.48,East,96,2.0,2.0,24,0.00,,,0.00,Wunderground v.1.15,2013-10-23 02:45:00,
2013-10-22 19:55:00,57.4,20.9,30.49,ESE,118,2.0,2.0,24,0.00,,,0.00,Wunderground v.1.15,2013-10-23 02:55:00,
2013-10-22 20:01:00,56.9,20.4,30.49,ESE,120,2.0,2.0,24,0.00,,,0.00,Wunderground v.1.15,2013-10-23 03:01:00,
2013-10-22 20:15:00,57.1,19.6,30.49,ESE,121,2.0,2.0,23,0.00,,,0.00,Wunderground v.1.15,2013-10-23 03:15:00,
2013-10-22 20:21:00,56.9,18.4,30.49,ESE,104,1.0,2.0,22,0.00,,,0.00,Wunderground v.1.15,2013-10-23 03:21:00,
2013-10-22 20:35:00,54.7,18.6,30.50,ESE,104,0.0,0.0,24,0.00,,,0.00,Wunderground v.1.15,2013-10-23 03:35:00,
2013-10-22 20:41:00,53.8,20.6,30.50,NW,318,0.0,1.0,27,0.00,,,0.00,Wunderground v.1.15,2013-10-23 03:41:00,
2013-10-22 20:55:00,50.4,20.1,30.50,North,4,0.0,1.0,30,0.00,,,0.00,Wunderground v.1.15,2013-10-23 03:55:00,
2013-10-22 21:05:00,51.2,20.0,30.50,North,6,1.0,1.0,29,0.00,,,0.00,Wunderground v.1.15,2013-10-23 04:05:00,
2013-10-22 21:11:00,51.7,20.4,30.50,NNE,15,1.0,1.0,29,0.00,,,0.00,Wunderground v.1.15,2013-10-23 04:11:00,
2013-10-22 21:25:00,51.1,19.9,30.51,NNE,25,1.0,2.0,29,0.00,,,0.00,Wunderground v.1.15,2013-10-23 04:25:00,
2013-10-22 21:35:00,51.1,20.7,30.51,North,8,2.0,2.0,30,0.00,,,0.00,Wunderground v.1.15,2013-10-23 04:35:00,
2013-10-22 21:41:00,51.0,20.6,30.51,NNW,343,2.0,2.0,30,0.00,,,0.00,Wunderground v.1.15,2013-10-23 04:41:00,
2013-10-22 21:55:00,50.8,20.4,30.51,North,6,2.0,2.0,30,0.00,,,0.00,Wunderground v.1.15,2013-10-23 04:55:00,
2013-10-22 22:01:00,50.4,20.1,30.51,North,349,2.0,2.0,30,0.00,,,0.00,Wunderground v.1.15,2013-10-23 05:01:00,
2013-10-22 22:11:00,49.6,20.9,30.52,NNE,30,1.0,2.0,32,0.00,,,0.00,Wunderground v.1.15,2013-10-23 05:11:00,
2013-10-22 22:21:00,49.7,21.0,30.52,North,11,2.0,2.0,32,0.00,,,0.00,Wunderground v.1.15,2013-10-23 05:21:00,
2013-10-22 22:35:00,49.3,20.6,30.52,North,352,1.0,2.0,32,0.00,,,0.00,Wunderground v.1.15,2013-10-23 05:35:00,
2013-10-22 22:41:00,49.3,20.6,30.52,NNW,335,2.0,2.0,32,0.00,,,0.00,Wunderground v.1.15,2013-10-23 05:41:00,
2013-10-22 22:55:00,48.2,20.4,30.52,North,356,2.0,3.0,33,0.00,,,0.00,Wunderground v.1.15,2013-10-23 05:55:00,
2013-10-22 23:01:00,47.8,20.8,30.52,NNW,345,2.0,2.0,34,0.00,,,0.00,Wunderground v.1.15,2013-10-23 06:01:00,
2013-10-22 23:15:00,47.5,21.2,30.52,NE,35,3.0,4.0,35,0.00,,,0.00,Wunderground v.1.15,2013-10-23 06:15:00,
2013-10-22 23:25:00,47.6,21.3,30.52,NNW,329,2.0,2.0,35,0.00,,,0.00,Wunderground v.1.15,2013-10-23 06:25:00,
2013-10-22 23:35:00,47.6,21.3,30.51,WNW,291,3.0,3.0,35,0.00,,,0.00,Wunderground v.1.15,2013-10-23 06:35:00,
2013-10-22 23:45:00,47.4,21.1,30.52,NNW,342,3.0,3.0,35,0.00,,,0.00,Wunderground v.1.15,2013-10-23 06:45:00,
2013-10-22 23:55:00,46.8,21.2,30.52,NNW,339,2.0,2.0,36,0.00,,,0.00,Wunderground v.1.15,2013-10-23 06:55:00,